Weather at Łódź Władysław Reymont Airport

Public forecast

Using degrees Celsius for public forecast. Weather courtesy of forecast.io.

Current aviation weather report (METAR) for Łódź Władysław Reymont Airport

Retrieved 2020/10/22 17:30 UTC (0 seconds ago):

EPLL 221730Z 19003KT 150V220 CAVOK 14/10 Q1016

Aviation forecast (TAF) for Łódź Władysław Reymont Airport

Retrieved 2020/10/22 12:00 UTC (5 hours ago):

TAF EPLL 221130Z 2212/2312 23010KT CAVOK BECMG 2310/2312 BKN014